createdAt,value
2019-02-25T00:00:15.666Z,98218.73
2019-02-25T00:02:42.717Z,98220.16
2019-02-25T00:05:09.783Z,98220.52
2019-02-25T00:07:36.851Z,98219.11
2019-02-25T00:10:04.744Z,98212.50
2019-02-25T00:12:31.832Z,98206.98
2019-02-25T00:14:58.880Z,98206.12
2019-02-25T00:17:25.924Z,98202.54
2019-02-25T00:19:52.984Z,98205.05
2019-02-25T00:22:20.067Z,98209.01
2019-02-25T00:24:47.132Z,98210.92
2019-02-25T00:27:14.182Z,98211.05
2019-02-25T00:29:41.224Z,98206.60
2019-02-25T00:32:08.280Z,98207.43
2019-02-25T00:34:35.328Z,98202.61
2019-02-25T00:37:02.399Z,98201.55
2019-02-25T00:39:29.455Z,98203.45
2019-02-25T00:41:56.530Z,98203.47
2019-02-25T00:44:23.576Z,98196.65
2019-02-25T00:46:50.654Z,98202.41
2019-02-25T00:49:17.716Z,98193.05
2019-02-25T00:51:44.766Z,98196.30
2019-02-25T00:54:11.856Z,98196.07
2019-02-25T00:56:38.909Z,98205.03
2019-02-25T00:59:06.010Z,98194.48
2019-02-25T01:01:33.104Z,98196.16
2019-02-25T01:04:00.157Z,98206.83
2019-02-25T01:06:27.199Z,98199.19
2019-02-25T01:08:54.360Z,98202.28
2019-02-25T01:11:21.427Z,98200.24
2019-02-25T01:13:48.502Z,98209.95
2019-02-25T01:16:15.545Z,98203.47
2019-02-25T01:18:42.607Z,98202.38
2019-02-25T01:21:09.699Z,98201.77
2019-02-25T01:23:36.749Z,98202.77
2019-02-25T01:26:03.802Z,98204.20
2019-02-25T01:28:30.856Z,98201.19
2019-02-25T01:30:57.912Z,98200.83
2019-02-25T01:33:24.972Z,98207.06
2019-02-25T01:35:52.082Z,98205.38
2019-02-25T01:38:19.135Z,98198.31
2019-02-25T01:40:46.188Z,98206.33
2019-02-25T01:43:13.240Z,98207.29
2019-02-25T01:45:40.295Z,98209.92
2019-02-25T01:48:07.343Z,98209.92
2019-02-25T01:50:34.392Z,98215.09
2019-02-25T01:53:01.436Z,98223.84
2019-02-25T01:55:28.491Z,98217.95
2019-02-25T01:57:55.528Z,98218.29
2019-02-25T02:00:22.579Z,98229.06
2019-02-25T02:02:49.622Z,98216.03
2019-02-25T02:05:16.679Z,98222.11
2019-02-25T02:07:43.758Z,98219.98
2019-02-25T02:10:11.172Z,98215.19
2019-02-25T02:12:38.217Z,98211.34
2019-02-25T02:15:07.796Z,98210.87
2019-02-25T02:17:34.850Z,98212.19
2019-02-25T02:20:01.913Z,98204.16
2019-02-25T02:22:28.984Z,98202.22
2019-02-25T02:24:56.051Z,98207.27
2019-02-25T02:27:23.087Z,98204.27
2019-02-25T02:29:50.153Z,98191.46
2019-02-25T02:32:17.218Z,98190.12
2019-02-25T02:34:44.296Z,98174.16
2019-02-25T02:37:11.350Z,98177.39
2019-02-25T02:39:38.401Z,98180.76
2019-02-25T02:42:10.667Z,98182.69
2019-02-25T02:44:37.707Z,98183.19
2019-02-25T02:47:44.322Z,98183.55
2019-02-25T02:50:14.555Z,98189.05
2019-02-25T02:52:41.608Z,98180.06
2019-02-25T02:55:08.683Z,98183.91
2019-02-25T02:57:35.763Z,98192.17
2019-02-25T03:00:03.680Z,98185.11
2019-02-25T03:02:30.744Z,98184.16
2019-02-25T03:04:57.824Z,98190.62
2019-02-25T03:07:24.866Z,98180.78
2019-02-25T03:09:51.922Z,98171.91
2019-02-25T03:12:18.987Z,98177.76
2019-02-25T03:14:46.034Z,98176.19
2019-02-25T03:17:13.068Z,98169.59
2019-02-25T03:19:40.099Z,98179.08
2019-02-25T03:22:07.169Z,98175.01
2019-02-25T03:24:34.216Z,98175.26
2019-02-25T03:27:01.278Z,98179.94
2019-02-25T03:29:28.322Z,98171.19
2019-02-25T03:31:55.346Z,98172.14
2019-02-25T03:34:22.390Z,98170.71
2019-02-25T03:36:49.447Z,98172.51
2019-02-25T03:39:16.487Z,98177.30
2019-02-25T03:41:43.541Z,98177.53
2019-02-25T03:44:10.596Z,98171.41
2019-02-25T03:46:37.640Z,98172.73
2019-02-25T03:49:04.689Z,98173.09
2019-02-25T03:51:31.741Z,98168.19
2019-02-25T03:53:58.803Z,98170.71
2019-02-25T03:56:25.851Z,98168.33
2019-02-25T03:58:52.898Z,98172.16
2019-02-25T04:01:19.954Z,98170.37
2019-02-25T04:03:46.995Z,98168.21
2019-02-25T04:06:14.067Z,98164.48
2019-02-25T04:08:41.128Z,98168.92
2019-02-25T04:11:08.217Z,98169.98
2019-02-25T04:13:35.268Z,98176.69
2019-02-25T04:16:02.314Z,98176.80
2019-02-25T04:18:29.366Z,98177.51
2019-02-25T04:20:56.434Z,98183.48
2019-02-25T04:23:23.530Z,98171.86
2019-02-25T04:25:50.590Z,98171.47
2019-02-25T04:28:17.666Z,98178.28
2019-02-25T04:30:44.740Z,98170.99
2019-02-25T04:33:11.822Z,98166.78
2019-02-25T04:35:38.876Z,98173.26
2019-02-25T04:38:05.938Z,98173.84
2019-02-25T04:40:32.987Z,98168.10
2019-02-25T04:43:00.056Z,98165.95
2019-02-25T04:45:27.137Z,98165.72
2019-02-25T04:47:54.199Z,98169.67
2019-02-25T04:50:21.275Z,98169.53
2019-02-25T04:52:48.334Z,98179.74
2019-02-25T04:55:19.980Z,98178.42
2019-02-25T04:57:47.017Z,98175.78
2019-02-25T05:00:15.285Z,98179.37
2019-02-25T05:02:42.375Z,98177.44
2019-02-25T05:05:09.454Z,98181.00
2019-02-25T05:07:36.519Z,98175.70
2019-02-25T05:10:03.992Z,98177.60
2019-02-25T05:12:31.054Z,98179.54
2019-02-25T05:14:58.094Z,98177.75
2019-02-25T05:17:25.126Z,98182.53
2019-02-25T05:19:52.180Z,98179.17
2019-02-25T05:22:19.229Z,98189.01
2019-02-25T05:24:46.299Z,98187.95
2019-02-25T05:27:13.322Z,98187.00
2019-02-25T05:29:40.376Z,98178.62
2019-02-25T05:32:07.415Z,98175.14
2019-02-25T05:34:34.454Z,98168.67
2019-02-25T05:37:01.496Z,98181.00
2019-02-25T05:39:28.524Z,98181.25
2019-02-25T05:41:55.601Z,98177.41
2019-02-25T05:44:22.636Z,98182.91
2019-02-25T05:46:49.680Z,98186.48
2019-02-25T05:49:16.720Z,98189.85
2019-02-25T05:51:43.726Z,98182.20
2019-02-25T05:54:10.809Z,98182.45
2019-02-25T05:56:37.863Z,98180.33
2019-02-25T05:59:04.924Z,98185.02
2019-02-25T06:01:31.941Z,98182.38
2019-02-25T06:03:59.047Z,98178.05
2019-02-25T06:06:26.089Z,98191.31
2019-02-25T06:08:53.160Z,98195.11
2019-02-25T06:11:20.183Z,98190.62
2019-02-25T06:13:47.242Z,98186.50
2019-02-25T06:16:14.285Z,98181.88
2019-02-25T06:18:41.327Z,98179.75
2019-02-25T06:21:08.395Z,98168.11
2019-02-25T06:23:35.435Z,98168.42
2019-02-25T06:26:02.508Z,98164.01
2019-02-25T06:28:29.545Z,98156.87
2019-02-25T06:30:56.633Z,98156.28
2019-02-25T06:33:23.680Z,98159.08
2019-02-25T06:35:50.711Z,98161.91
2019-02-25T06:38:17.749Z,98158.25
2019-02-25T06:40:44.793Z,98162.09
2019-02-25T06:43:11.868Z,98165.66
2019-02-25T06:45:38.917Z,98168.48
2019-02-25T06:48:05.990Z,98156.58
2019-02-25T06:50:33.038Z,98166.84
2019-02-25T06:53:00.116Z,98161.33
2019-02-25T06:55:27.163Z,98163.15
2019-02-25T06:57:54.196Z,98158.16
2019-02-25T07:00:21.240Z,98155.88
2019-02-25T07:02:48.299Z,98154.97
2019-02-25T07:05:26.616Z,98154.77
2019-02-25T07:07:56.756Z,98154.77
2019-02-25T07:10:37.056Z,98145.64
2019-02-25T07:13:29.508Z,98145.77
2019-02-25T07:16:14.756Z,98145.89
2019-02-25T07:18:53.058Z,98147.45
2019-02-25T07:21:39.726Z,98147.77
2019-02-25T07:24:13.901Z,98155.09
2019-02-25T07:27:12.887Z,98151.97
2019-02-25T07:29:59.552Z,98156.84
2019-02-25T07:32:55.562Z,98148.73
2019-02-25T07:35:45.046Z,98148.06
2019-02-25T07:38:39.694Z,98153.02
2019-02-25T07:41:29.441Z,98156.58
2019-02-25T07:44:16.315Z,98149.44
2019-02-25T07:47:08.891Z,98149.44
2019-02-25T07:49:55.541Z,98154.34
2019-02-25T07:52:42.227Z,98142.67
2019-02-25T07:55:23.766Z,98142.78
2019-02-25T07:58:14.666Z,98150.69
2019-02-25T08:00:55.539Z,98136.56
2019-02-25T08:03:48.031Z,98133.63
2019-02-25T08:06:28.517Z,98136.41
2019-02-25T08:09:14.011Z,98136.41
2019-02-25T08:12:02.967Z,98140.91
2019-02-25T08:14:51.088Z,98140.91
2019-02-25T08:17:41.395Z,98125.26
2019-02-25T08:20:33.776Z,98131.01
2019-02-25T08:23:20.455Z,98146.81
2019-02-25T08:26:09.633Z,98143.41
2019-02-25T08:28:59.049Z,98157.23
2019-02-25T08:31:42.615Z,98149.18
2019-02-25T08:34:32.211Z,98154.34
2019-02-25T08:37:43.502Z,98160.68
2019-02-25T08:40:51.869Z,98161.27
2019-02-25T08:43:31.895Z,98157.20
2019-02-25T08:46:18.557Z,98157.88
2019-02-25T08:48:58.460Z,98154.00
2019-02-25T08:51:25.501Z,98161.84
2019-02-25T08:53:52.558Z,98167.66
2019-02-25T08:56:19.709Z,98172.84
2019-02-25T08:58:46.780Z,98171.34
2019-02-25T09:01:15.384Z,98188.13
2019-02-25T09:03:42.709Z,98198.06
2019-02-25T09:06:09.766Z,98198.73
2019-02-25T09:08:36.817Z,98204.81
2019-02-25T09:11:03.878Z,98201.13
2019-02-25T09:13:30.937Z,98198.78
2019-02-25T09:15:57.985Z,98194.91
2019-02-25T09:18:25.044Z,98198.55
2019-02-25T09:20:52.104Z,98204.31
2019-02-25T09:23:19.186Z,98201.26
2019-02-25T09:25:46.260Z,98210.86
2019-02-25T09:28:13.317Z,98208.13
2019-02-25T09:30:40.376Z,98213.88
2019-02-25T09:33:07.431Z,98213.45
2019-02-25T09:35:34.546Z,98213.06
2019-02-25T09:38:01.606Z,98216.31
2019-02-25T09:40:28.642Z,98212.37
2019-02-25T09:42:55.720Z,98206.28
2019-02-25T09:45:22.763Z,98213.64
2019-02-25T09:47:49.798Z,98207.00
2019-02-25T09:50:16.859Z,98205.84
2019-02-25T09:52:43.910Z,98199.38
2019-02-25T09:55:12.378Z,98205.42
2019-02-25T09:57:39.448Z,98204.44
2019-02-25T10:00:09.452Z,98200.95
2019-02-25T10:02:36.511Z,98199.50
2019-02-25T10:05:04.258Z,98203.86
2019-02-25T10:07:31.326Z,98202.87
2019-02-25T10:09:58.381Z,98208.25
2019-02-25T10:12:25.420Z,98222.75
2019-02-25T10:14:52.487Z,98210.69
2019-02-25T10:17:23.638Z,98211.46
2019-02-25T10:19:48.491Z,98212.52
2019-02-25T10:22:15.568Z,98206.39
2019-02-25T10:24:42.635Z,98195.39
2019-02-25T10:27:09.727Z,98205.63
2019-02-25T10:29:36.786Z,98205.60
2019-02-25T10:32:04.835Z,98206.12
2019-02-25T10:34:32.805Z,98212.14
2019-02-25T10:36:59.861Z,98202.59
2019-02-25T10:39:26.928Z,98201.03
2019-02-25T10:41:55.506Z,98190.80
2019-02-25T10:44:22.925Z,98191.97
2019-02-25T10:46:49.971Z,98193.02
2019-02-25T10:49:17.019Z,98184.44
2019-02-25T10:51:45.622Z,98187.03
2019-02-25T10:54:12.714Z,98187.75
2019-02-25T10:56:43.560Z,98182.48
2019-02-25T10:59:10.623Z,98174.34
2019-02-25T11:01:39.259Z,98167.30
2019-02-25T11:04:06.633Z,98165.92
2019-02-25T11:06:35.525Z,98163.60
2019-02-25T11:09:32.041Z,98151.19
2019-02-25T11:12:00.110Z,98148.02
2019-02-25T11:14:35.857Z,98137.47
2019-02-25T11:17:09.920Z,98139.77
2019-02-25T11:19:36.950Z,98136.94
2019-02-25T11:22:05.590Z,98135.08
2019-02-25T11:24:33.024Z,98128.33
2019-02-25T11:27:01.124Z,98128.95
2019-02-25T11:29:35.072Z,98118.89
2019-02-25T11:32:02.120Z,98122.69
2019-02-25T11:34:31.085Z,98121.38
2019-02-25T11:37:04.272Z,98120.00
2019-02-25T11:39:32.605Z,98120.00
2019-02-25T11:42:08.023Z,98121.14
2019-02-25T11:45:03.675Z,98117.30
2019-02-25T11:47:40.012Z,98117.30
2019-02-25T11:50:09.257Z,98126.27
2019-02-25T11:52:50.610Z,98122.64
2019-02-25T11:55:37.131Z,98122.64
2019-02-25T11:58:04.180Z,98116.70
2019-02-25T12:00:31.246Z,98119.23
2019-02-25T12:03:17.870Z,98120.78
2019-02-25T12:05:44.925Z,98114.62
2019-02-25T12:08:11.995Z,98107.19
2019-02-25T12:10:39.032Z,98102.18
2019-02-25T12:13:06.110Z,98095.92
2019-02-25T12:15:33.257Z,98094.45
2019-02-25T12:18:00.319Z,98091.66
2019-02-25T12:20:27.368Z,98092.19
2019-02-25T12:22:54.385Z,98087.26
2019-02-25T12:25:21.440Z,98085.56
2019-02-25T12:27:48.479Z,98079.97
2019-02-25T12:30:16.744Z,98076.59
2019-02-25T12:32:43.823Z,98075.45
2019-02-25T12:35:10.862Z,98071.47
2019-02-25T12:37:37.902Z,98065.28
2019-02-25T12:40:05.096Z,98067.27
2019-02-25T12:42:32.498Z,98066.14
2019-02-25T12:44:59.556Z,98065.53
2019-02-25T12:47:26.606Z,98059.29
2019-02-25T12:49:53.664Z,98055.04
2019-02-25T12:52:20.690Z,98051.48
2019-02-25T12:54:47.725Z,98047.13
2019-02-25T12:57:14.776Z,98046.91
2019-02-25T12:59:41.800Z,98048.41
2019-02-25T13:02:08.843Z,98040.13
2019-02-25T13:04:35.870Z,98032.39
2019-02-25T13:07:02.924Z,98024.95
2019-02-25T13:09:29.964Z,98024.16
2019-02-25T13:11:57.012Z,98019.33
2019-02-25T13:14:24.045Z,98016.33
2019-02-25T13:16:51.372Z,98012.28
2019-02-25T13:19:18.417Z,98008.70
2019-02-25T13:21:45.744Z,98009.58
2019-02-25T13:24:12.795Z,98013.95
2019-02-25T13:26:39.823Z,98015.31
2019-02-25T13:29:06.879Z,98004.92
2019-02-25T13:31:33.938Z,98003.03
2019-02-25T13:34:00.987Z,98001.52
2019-02-25T13:36:28.029Z,98002.00
2019-02-25T13:38:55.093Z,98000.27
2019-02-25T13:41:22.145Z,97997.41
2019-02-25T13:43:49.179Z,97998.44
2019-02-25T13:46:16.326Z,97999.80
2019-02-25T13:48:43.360Z,97998.44
2019-02-25T13:51:10.418Z,97997.92
2019-02-25T13:53:37.455Z,97999.24
2019-02-25T13:56:04.585Z,97989.91
2019-02-25T13:58:31.639Z,97991.59
2019-02-25T14:00:58.788Z,97984.77
2019-02-25T14:03:25.915Z,97976.77
2019-02-25T14:05:52.970Z,97969.75
2019-02-25T14:08:20.061Z,97962.55
2019-02-25T14:10:47.321Z,97958.00
2019-02-25T14:13:14.390Z,97948.57
2019-02-25T14:15:41.477Z,97946.97
2019-02-25T14:18:08.533Z,97946.18
2019-02-25T14:20:35.601Z,97945.53
2019-02-25T14:23:02.656Z,97938.43
2019-02-25T14:25:29.747Z,97945.48
2019-02-25T14:27:57.005Z,97944.91
2019-02-25T14:30:24.143Z,97942.50
2019-02-25T14:32:53.496Z,97938.36
2019-02-25T14:35:21.398Z,97934.19
2019-02-25T14:37:48.464Z,97936.31
2019-02-25T14:40:17.133Z,97929.97
2019-02-25T14:42:53.728Z,97927.59
2019-02-25T14:45:28.682Z,97919.28
2019-02-25T14:48:08.020Z,97917.42
2019-02-25T14:53:44.803Z,97903.82
2019-02-25T14:56:18.210Z,97911.92
2019-02-25T14:58:46.056Z,97904.59
2019-02-25T15:01:21.051Z,97895.63
2019-02-25T15:03:56.487Z,97891.38
2019-02-25T15:06:32.510Z,97885.66
2019-02-25T15:09:09.819Z,97880.44
2019-02-25T15:11:42.371Z,97882.98
2019-02-25T15:14:10.671Z,97874.67
2019-02-25T15:16:44.604Z,97865.22
2019-02-25T15:19:13.365Z,97868.98
2019-02-25T15:21:47.607Z,97862.23
2019-02-25T15:24:21.874Z,97863.03
2019-02-25T15:26:48.961Z,97870.55
2019-02-25T15:29:16.032Z,97867.30
2019-02-25T15:31:44.439Z,97869.95
2019-02-25T15:34:19.303Z,97866.47
2019-02-25T15:36:53.391Z,97862.74
2019-02-25T15:39:20.501Z,97861.66
2019-02-25T15:41:48.697Z,97858.55
2019-02-25T15:44:16.510Z,97862.99
2019-02-25T15:46:43.580Z,97858.16
2019-02-25T15:49:12.740Z,97862.75
2019-02-25T15:51:41.564Z,97867.39
2019-02-25T15:54:10.126Z,97865.17
2019-02-25T15:56:37.460Z,97871.26
2019-02-25T15:59:04.518Z,97867.48
2019-02-25T16:01:31.753Z,97872.52
2019-02-25T16:04:02.243Z,97876.14
2019-02-25T16:06:29.207Z,97878.92
2019-02-25T16:09:07.730Z,97884.36
2019-02-25T16:11:34.931Z,97889.94
2019-02-25T16:14:02.932Z,97892.39
2019-02-25T16:16:41.089Z,97896.22
2019-02-25T16:19:08.181Z,97896.84
2019-02-25T16:21:35.253Z,97892.78
2019-02-25T16:24:04.816Z,97904.54
2019-02-25T16:26:42.767Z,97913.75
2019-02-25T16:29:16.184Z,97910.09
2019-02-25T16:31:43.271Z,97907.52
2019-02-25T16:34:29.844Z,97912.70
2019-02-25T16:36:58.244Z,97912.70
2019-02-25T16:39:32.585Z,97929.23
2019-02-25T16:41:59.686Z,97927.32
2019-02-25T16:44:26.753Z,97926.41
2019-02-25T16:46:54.167Z,97926.95
2019-02-25T16:49:21.292Z,97920.59
2019-02-25T16:51:48.374Z,97926.78
2019-02-25T16:54:18.968Z,97936.61
2019-02-25T16:56:50.521Z,97933.91
2019-02-25T16:59:18.571Z,97933.94
2019-02-25T17:01:55.826Z,97938.45
2019-02-25T17:04:31.730Z,97932.42
2019-02-25T17:07:08.858Z,97930.20
2019-02-25T17:09:37.111Z,97936.58
2019-02-25T17:12:11.629Z,97940.92
2019-02-25T17:14:40.492Z,97943.11
2019-02-25T17:17:18.306Z,97941.55
2019-02-25T17:19:45.412Z,97940.51
2019-02-25T17:22:12.503Z,97936.45
2019-02-25T17:24:39.574Z,97938.23
2019-02-25T17:27:08.937Z,97942.97
2019-02-25T17:29:36.232Z,97942.06
2019-02-25T17:32:03.751Z,97937.58
2019-02-25T17:34:32.179Z,97930.81
2019-02-25T17:36:59.783Z,97939.05
2019-02-25T17:39:26.865Z,97940.28
2019-02-25T17:41:54.051Z,97941.48
2019-02-25T17:44:23.370Z,97944.36
2019-02-25T17:46:50.253Z,97953.40
2019-02-25T17:49:19.085Z,97950.11
2019-02-25T17:51:46.379Z,97952.63
2019-02-25T17:54:14.655Z,97956.51
2019-02-25T17:56:43.170Z,97952.01
2019-02-25T17:59:13.655Z,97945.00
2019-02-25T18:01:41.763Z,97943.70
2019-02-25T18:04:10.854Z,97944.72
2019-02-25T18:06:41.496Z,97950.92
2019-02-25T18:09:09.254Z,97956.59
2019-02-25T18:11:38.942Z,97957.62
2019-02-25T18:14:06.055Z,97944.94
2019-02-25T18:16:36.795Z,97955.60
2019-02-25T18:19:02.257Z,97955.93
2019-02-25T18:21:29.372Z,97950.63
2019-02-25T18:23:56.830Z,97947.95
2019-02-25T18:26:24.236Z,97951.61
2019-02-25T18:28:52.626Z,97955.27
2019-02-25T18:31:20.590Z,97964.95
2019-02-25T18:33:48.533Z,97964.61
2019-02-25T18:36:18.077Z,97961.59
2019-02-25T18:38:46.445Z,97961.94
2019-02-25T18:41:14.380Z,97962.25
2019-02-25T18:43:42.989Z,97969.06
2019-02-25T18:46:11.486Z,97964.23
2019-02-25T18:48:40.722Z,97962.20
2019-02-25T18:51:08.177Z,97963.19
2019-02-25T18:53:35.633Z,97959.52
2019-02-25T18:56:02.806Z,97959.16
2019-02-25T18:58:31.100Z,97954.16
2019-02-25T19:00:59.144Z,97963.12
2019-02-25T19:03:26.952Z,97965.80
2019-02-25T19:05:55.387Z,97973.76
2019-02-25T19:08:24.627Z,97974.73
2019-02-25T19:10:53.185Z,97971.20
2019-02-25T19:13:23.344Z,97968.05
2019-02-25T19:15:53.105Z,97980.84
2019-02-25T19:18:21.213Z,97973.17
2019-02-25T19:20:48.462Z,97969.65
2019-02-25T19:23:16.584Z,97971.61
2019-02-25T19:25:45.515Z,97976.59
2019-02-25T19:28:16.567Z,97984.08
2019-02-25T19:30:42.042Z,97987.91
2019-02-25T19:33:11.400Z,97996.42
2019-02-25T19:35:40.860Z,98002.27
2019-02-25T19:38:10.229Z,97999.95
2019-02-25T19:40:40.379Z,97994.10
2019-02-25T19:43:07.140Z,98002.25
2019-02-25T19:45:36.385Z,97998.07
2019-02-25T19:48:05.358Z,98009.86
2019-02-25T19:50:38.528Z,98002.50
2019-02-25T19:53:07.654Z,97997.98
2019-02-25T19:55:36.175Z,98001.78
2019-02-25T19:58:04.514Z,98002.28
2019-02-25T20:00:33.860Z,97996.09
2019-02-25T20:03:05.492Z,97993.39
2019-02-25T20:05:33.171Z,97993.89
2019-02-25T20:08:04.389Z,98001.34
2019-02-25T20:10:32.208Z,98010.91
2019-02-25T20:13:05.708Z,98014.14
2019-02-25T20:15:32.617Z,98019.27
2019-02-25T20:17:59.915Z,98024.84
2019-02-25T20:20:34.617Z,98020.32
2019-02-25T20:23:03.867Z,98021.14
2019-02-25T20:25:31.252Z,98017.65
2019-02-25T20:28:00.329Z,98016.77
2019-02-25T20:30:28.834Z,98015.25
2019-02-25T20:32:56.788Z,98018.84
2019-02-25T20:35:26.786Z,98020.47
2019-02-25T20:37:55.751Z,98015.14
2019-02-25T20:40:26.021Z,98018.59
2019-02-25T20:42:56.452Z,98012.94
2019-02-25T20:45:27.738Z,98012.30
2019-02-25T20:47:57.221Z,98018.64
2019-02-25T20:50:24.771Z,98012.83
2019-02-25T20:52:52.212Z,98013.81
2019-02-25T20:55:19.390Z,98009.98
2019-02-25T20:57:46.837Z,98005.95
2019-02-25T21:00:17.731Z,97997.28
2019-02-25T21:02:46.678Z,97997.44
2019-02-25T21:05:16.912Z,98003.05
2019-02-25T21:07:44.983Z,98001.03
2019-02-25T21:10:12.425Z,98007.33
2019-02-25T21:12:39.505Z,98003.18
2019-02-25T21:15:08.458Z,98006.13
2019-02-25T21:17:37.765Z,98015.28
2019-02-25T21:20:07.124Z,98014.10
2019-02-25T21:22:36.252Z,98014.59
2019-02-25T21:25:04.863Z,98017.74
2019-02-25T21:27:34.644Z,98020.20
2019-02-25T21:30:03.877Z,98025.17
2019-02-25T21:32:30.742Z,98026.80
2019-02-25T21:34:59.555Z,98025.47
2019-02-25T21:37:27.721Z,98022.31
2019-02-25T21:39:56.636Z,98017.50
2019-02-25T21:42:26.741Z,98002.89
2019-02-25T21:44:54.689Z,98000.52
2019-02-25T21:47:24.304Z,98008.49
2019-02-25T21:49:52.462Z,98009.97
2019-02-25T21:52:20.774Z,98003.16
2019-02-25T21:54:47.841Z,98006.45
2019-02-25T21:57:14.893Z,97999.13
2019-02-25T21:59:41.997Z,97993.81
2019-02-25T22:02:09.066Z,97989.14
2019-02-25T22:04:38.493Z,97980.00
2019-02-25T22:07:05.065Z,97984.27
2019-02-25T22:09:36.984Z,97987.42
2019-02-25T22:12:01.111Z,97986.73
2019-02-25T22:14:28.157Z,97978.22
2019-02-25T22:16:56.631Z,97983.22
2019-02-25T22:19:24.167Z,97987.34
2019-02-25T22:21:53.573Z,97987.84
2019-02-25T22:24:24.776Z,97980.31
2019-02-25T22:26:51.206Z,97979.63
2019-02-25T22:29:18.125Z,97983.27
2019-02-25T22:31:45.169Z,97978.59
2019-02-25T22:34:13.124Z,97991.52
2019-02-25T22:36:43.778Z,97987.68
2019-02-25T22:39:10.799Z,97980.55
2019-02-25T22:41:37.847Z,97989.16
2019-02-25T22:44:06.371Z,97986.98
2019-02-25T22:46:36.833Z,97988.31
2019-02-25T22:49:03.486Z,97989.30
2019-02-25T22:51:33.206Z,97989.30
2019-02-25T22:54:00.769Z,97987.13
2019-02-25T22:56:28.218Z,97991.11
2019-02-25T22:58:56.603Z,97991.11
2019-02-25T23:01:24.316Z,97991.11
2019-02-25T23:03:54.528Z,97987.80
2019-02-25T23:06:21.320Z,97991.93
2019-02-25T23:08:51.010Z,97993.40
2019-02-25T23:11:19.839Z,97998.02
2019-02-25T23:13:47.868Z,98001.30
2019-02-25T23:16:18.673Z,98004.11
2019-02-25T23:18:47.768Z,98002.58
2019-02-25T23:21:23.434Z,98009.50
2019-02-25T23:23:44.299Z,98006.81
2019-02-25T23:26:12.604Z,98013.25
2019-02-25T23:28:40.274Z,98012.55
2019-02-25T23:31:07.313Z,98014.86
2019-02-25T23:33:38.148Z,98008.52
2019-02-25T23:36:03.370Z,98004.67
2019-02-25T23:38:30.428Z,98017.45
2019-02-25T23:41:01.311Z,98016.27
2019-02-25T23:43:26.478Z,98011.73
2019-02-25T23:45:53.557Z,98013.20
2019-02-25T23:48:20.578Z,98012.86
2019-02-25T23:50:48.507Z,98013.38
2019-02-25T23:53:16.560Z,98020.50
2019-02-25T23:55:47.129Z,98016.66
2019-02-25T23:58:14.785Z,98026.44
